West Henrietta, NY

3:17 AM EDT on September 03, 2014 (GMT -0400)
highfiwx | Change Station
CLOSE
Current Station
Personal Weather Station
Location: Rush, NY
Elevation: 630 ft
Nearby Weather Stations

Elev 630 ft 43.00 °N, 77.71 °W | Updated 7 minutes ago

Partly Cloudy
Partly Cloudy
61.8 °F
Feels Like 61.8 °F
N
0.0
Wind Variable Wind from North
Gusts 0.0 mph

Today
High -- | Low -- °F
--% Chance of Precip.
Yesterday
High -- | Low -- °F
Precip. -- in
6:37 AM 7:42 PM
First Quarter, 59% visible
Pressure 29.93 in
Visibility 6.0 miles
Clouds Few 1400 ft
Dew Point 61 °F
Humidity 97%
Rainfall 0.00 in
Snow Depth Not available.
UV 0 out of 12
Pollen 7.00 out of 12
Air Quality Not available.
Flu Activity Not available.
METAR KROC 030654Z 26004KT 6SM BR FEW014 18/17 A2992 RMK AO2 SLP133 T01830172

More Conditions Fewer Conditions

Pressure 29.93 in
Visibility 6.0 miles
Clouds Few 1400 ft
Dew Point 61 °F
Humidity 97%
Rainfall 0.00 in
Snow Depth Not available.
UV 0 out of 12
Pollen 7.00 out of 12
Air Quality Not available.
Flu Activity Not available.
METAR KROC 030654Z 26004KT 6SM BR FEW014 18/17 A2992 RMK AO2 SLP133 T01830172

More Conditions Fewer Conditions

10-Day Weather Forecast

Almanac

Astronomy

Sep. 03, 2014 Rise Set
Actual Time 6:37 AM EDT 7:42 PM EDT
Civil Twilight 6:08 AM EDT 8:11 PM EDT
Nautical Twilight 5:33 AM EDT 8:45 PM EDT
Astronomical Twilight 4:56 AM EDT 9:22 PM EDT
Moon 3:27 PM EDT 12:24 AM EDT
Length of Visible Light 14h 02m
Length of Day
13h 04m
Tomorrow will be 2m 51s shorter.
First Quarter, 59% of the Moon is Illuminated
Today
First Quarter
Sep 8
Full
Sep 15
Last Quarter
Sep 24
New
Oct 1
First Quarter

Today's Extremes

State Highs State Lows

Community

WunderPhotos

Upload Photos

1,749,888 photos uploaded!

Nearby

Air Quality

  Air Quality AQ Index Pollutant
Wednesday Good
PM2.5
Wednesday Good
OZONE

Snow Depth

Station Depth Elevation
No new snow has been reported.

Earthquake Activity

City Distance Mag. Time & Date
No recent earthquake activity has been reported nearby.
Minimum magnitude displayed is 2.5.

Coastal Water Temperatures

Place Temperature
Buffalo, NY 73.0 °F
Alexandria Bay, NY 69.1 °F

Nearby Weather Stations